sensor_id;sensor_type;location;lat;lon;timestamp;P1;durP1;ratioP1;P2;durP2;ratioP2
37873;SDS011;23709;48.078;11.684;2023-05-15T00:00:50;22.17;;;13.10;;
37873;SDS011;23709;48.078;11.684;2023-05-15T00:05:57;22.42;;;13.50;;
37873;SDS011;23709;48.078;11.684;2023-05-15T00:08:30;21.08;;;12.43;;
37873;SDS011;23709;48.078;11.684;2023-05-15T00:11:03;19.55;;;11.43;;
37873;SDS011;23709;48.078;11.684;2023-05-15T00:13:36;26.38;;;15.15;;
37873;SDS011;23709;48.078;11.684;2023-05-15T00:16:09;16.13;;;10.70;;
37873;SDS011;23709;48.078;11.684;2023-05-15T00:21:16;16.95;;;11.25;;
37873;SDS011;23709;48.078;11.684;2023-05-15T00:23:49;16.80;;;10.57;;
37873;SDS011;23709;48.078;11.684;2023-05-15T00:26:26;16.10;;;10.73;;
37873;SDS011;23709;48.078;11.684;2023-05-15T00:29:00;17.92;;;10.52;;
37873;SDS011;23709;48.078;11.684;2023-05-15T00:31:32;16.38;;;10.10;;
37873;SDS011;23709;48.078;11.684;2023-05-15T00:34:04;15.65;;;10.20;;
37873;SDS011;23709;48.078;11.684;2023-05-15T00:36:37;16.55;;;10.13;;
37873;SDS011;23709;48.078;11.684;2023-05-15T00:39:10;16.80;;;9.48;;
37873;SDS011;23709;48.078;11.684;2023-05-15T00:41:46;15.70;;;10.05;;
37873;SDS011;23709;48.078;11.684;2023-05-15T00:44:21;16.45;;;9.73;;
37873;SDS011;23709;48.078;11.684;2023-05-15T00:46:56;16.95;;;10.50;;
37873;SDS011;23709;48.078;11.684;2023-05-15T00:49:30;17.20;;;10.30;;
37873;SDS011;23709;48.078;11.684;2023-05-15T00:52:07;15.10;;;9.50;;
37873;SDS011;23709;48.078;11.684;2023-05-15T00:54:40;16.98;;;10.52;;
37873;SDS011;23709;48.078;11.684;2023-05-15T00:57:12;19.63;;;10.18;;
37873;SDS011;23709;48.078;11.684;2023-05-15T00:59:46;15.65;;;9.70;;
37873;SDS011;23709;48.078;11.684;2023-05-15T01:02:20;15.40;;;9.65;;
37873;SDS011;23709;48.078;11.684;2023-05-15T01:04:54;15.15;;;10.13;;
37873;SDS011;23709;48.078;11.684;2023-05-15T01:07:27;16.57;;;9.83;;
37873;SDS011;23709;48.078;11.684;2023-05-15T01:10:03;17.67;;;9.77;;
37873;SDS011;23709;48.078;11.684;2023-05-15T01:12:38;17.17;;;10.65;;
37873;SDS011;23709;48.078;11.684;2023-05-15T01:15:12;17.35;;;10.38;;
37873;SDS011;23709;48.078;11.684;2023-05-15T01:17:48;14.93;;;10.27;;
37873;SDS011;23709;48.078;11.684;2023-05-15T01:23:04;16.42;;;9.05;;
37873;SDS011;23709;48.078;11.684;2023-05-15T01:28:45;15.18;;;9.63;;
37873;SDS011;23709;48.078;11.684;2023-05-15T01:31:26;17.67;;;9.63;;
37873;SDS011;23709;48.078;11.684;2023-05-15T01:34:06;15.10;;;9.68;;
37873;SDS011;23709;48.078;11.684;2023-05-15T01:36:45;17.27;;;10.15;;
37873;SDS011;23709;48.078;11.684;2023-05-15T01:39:22;17.15;;;10.15;;
37873;SDS011;23709;48.078;11.684;2023-05-15T01:42:02;17.65;;;10.80;;
37873;SDS011;23709;48.078;11.684;2023-05-15T01:44:43;22.98;;;12.52;;
37873;SDS011;23709;48.078;11.684;2023-05-15T01:47:23;15.27;;;9.88;;
37873;SDS011;23709;48.078;11.684;2023-05-15T01:50:05;20.77;;;12.55;;
37873;SDS011;23709;48.078;11.684;2023-05-15T01:52:42;27.80;;;14.80;;
37873;SDS011;23709;48.078;11.684;2023-05-15T01:55:19;26.23;;;14.07;;
37873;SDS011;23709;48.078;11.684;2023-05-15T01:57:55;35.05;;;17.58;;
37873;SDS011;23709;48.078;11.684;2023-05-15T02:00:32;28.15;;;15.93;;
37873;SDS011;23709;48.078;11.684;2023-05-15T02:03:06;31.98;;;17.33;;
37873;SDS011;23709;48.078;11.684;2023-05-15T02:05:40;35.20;;;17.48;;
37873;SDS011;23709;48.078;11.684;2023-05-15T02:08:13;34.40;;;18.00;;
37873;SDS011;23709;48.078;11.684;2023-05-15T02:10:47;25.33;;;14.90;;
37873;SDS011;23709;48.078;11.684;2023-05-15T02:13:24;27.65;;;15.68;;
37873;SDS011;23709;48.078;11.684;2023-05-15T02:15:58;36.30;;;19.10;;
37873;SDS011;23709;48.078;11.684;2023-05-15T02:18:31;29.55;;;16.42;;
37873;SDS011;23709;48.078;11.684;2023-05-15T02:23:39;33.45;;;17.23;;
37873;SDS011;23709;48.078;11.684;2023-05-15T02:29:12;38.28;;;19.15;;
37873;SDS011;23709;48.078;11.684;2023-05-15T02:31:58;32.13;;;17.20;;
37873;SDS011;23709;48.078;11.684;2023-05-15T02:34:48;37.80;;;18.45;;
37873;SDS011;23709;48.078;11.684;2023-05-15T02:37:42;38.33;;;18.52;;
37873;SDS011;23709;48.078;11.684;2023-05-15T02:40:22;40.88;;;19.33;;
37873;SDS011;23709;48.078;11.684;2023-05-15T02:42:56;44.45;;;19.40;;
37873;SDS011;23709;48.078;11.684;2023-05-15T02:45:30;39.13;;;18.92;;
37873;SDS011;23709;48.078;11.684;2023-05-15T02:48:06;40.95;;;18.95;;
37873;SDS011;23709;48.078;11.684;2023-05-15T02:50:39;45.25;;;19.80;;
37873;SDS011;23709;48.078;11.684;2023-05-15T02:53:13;51.13;;;21.08;;
37873;SDS011;23709;48.078;11.684;2023-05-15T02:55:47;36.05;;;17.80;;
37873;SDS011;23709;48.078;11.684;2023-05-15T02:58:20;36.30;;;18.75;;
37873;SDS011;23709;48.078;11.684;2023-05-15T03:00:52;60.38;;;22.83;;
37873;SDS011;23709;48.078;11.684;2023-05-15T03:03:25;36.03;;;17.50;;
37873;SDS011;23709;48.078;11.684;2023-05-15T03:05:58;43.80;;;18.05;;
37873;SDS011;23709;48.078;11.684;2023-05-15T03:08:33;38.42;;;17.40;;
37873;SDS011;23709;48.078;11.684;2023-05-15T03:11:06;40.20;;;18.50;;
37873;SDS011;23709;48.078;11.684;2023-05-15T03:13:39;35.53;;;17.27;;
37873;SDS011;23709;48.078;11.684;2023-05-15T03:16:13;40.75;;;18.75;;
37873;SDS011;23709;48.078;11.684;2023-05-15T03:18:46;26.53;;;14.70;;
37873;SDS011;23709;48.078;11.684;2023-05-15T03:21:18;32.35;;;16.42;;
37873;SDS011;23709;48.078;11.684;2023-05-15T03:23:51;40.08;;;18.35;;
37873;SDS011;23709;48.078;11.684;2023-05-15T03:26:23;42.88;;;18.02;;
37873;SDS011;23709;48.078;11.684;2023-05-15T03:28:56;38.67;;;17.38;;
37873;SDS011;23709;48.078;11.684;2023-05-15T03:31:29;36.75;;;17.08;;
37873;SDS011;23709;48.078;11.684;2023-05-15T03:34:01;34.20;;;17.00;;
37873;SDS011;23709;48.078;11.684;2023-05-15T03:36:34;35.38;;;16.55;;
37873;SDS011;23709;48.078;11.684;2023-05-15T03:39:08;29.17;;;14.85;;
37873;SDS011;23709;48.078;11.684;2023-05-15T03:44:16;38.15;;;16.25;;
37873;SDS011;23709;48.078;11.684;2023-05-15T03:46:50;32.97;;;15.80;;
37873;SDS011;23709;48.078;11.684;2023-05-15T03:49:25;35.22;;;16.30;;
37873;SDS011;23709;48.078;11.684;2023-05-15T03:51:58;29.50;;;14.50;;
37873;SDS011;23709;48.078;11.684;2023-05-15T03:54:31;36.55;;;17.48;;
37873;SDS011;23709;48.078;11.684;2023-05-15T03:57:04;34.30;;;16.80;;
37873;SDS011;23709;48.078;11.684;2023-05-15T03:59:37;29.67;;;14.43;;
37873;SDS011;23709;48.078;11.684;2023-05-15T04:02:10;32.58;;;14.95;;
37873;SDS011;23709;48.078;11.684;2023-05-15T04:04:42;31.02;;;15.05;;
37873;SDS011;23709;48.078;11.684;2023-05-15T04:07:15;31.43;;;14.77;;
37873;SDS011;23709;48.078;11.684;2023-05-15T04:09:48;31.08;;;14.85;;
37873;SDS011;23709;48.078;11.684;2023-05-15T04:12:21;28.13;;;14.57;;
37873;SDS011;23709;48.078;11.684;2023-05-15T04:14:54;25.05;;;13.30;;
37873;SDS011;23709;48.078;11.684;2023-05-15T04:17:47;22.50;;;13.15;;
37873;SDS011;23709;48.078;11.684;2023-05-15T04:20:23;31.05;;;16.02;;
37873;SDS011;23709;48.078;11.684;2023-05-15T04:22:55;29.30;;;15.00;;
37873;SDS011;23709;48.078;11.684;2023-05-15T04:25:28;25.13;;;14.80;;
37873;SDS011;23709;48.078;11.684;2023-05-15T04:28:00;37.08;;;15.77;;
37873;SDS011;23709;48.078;11.684;2023-05-15T04:30:32;27.52;;;15.18;;
37873;SDS011;23709;48.078;11.684;2023-05-15T04:33:04;30.75;;;16.02;;
37873;SDS011;23709;48.078;11.684;2023-05-15T04:35:37;27.92;;;14.85;;
37873;SDS011;23709;48.078;11.684;2023-05-15T04:38:09;34.80;;;15.85;;
37873;SDS011;23709;48.078;11.684;2023-05-15T04:40:42;27.50;;;14.93;;
37873;SDS011;23709;48.078;11.684;2023-05-15T04:43:15;23.48;;;14.40;;
37873;SDS011;23709;48.078;11.684;2023-05-15T04:45:47;29.17;;;15.68;;
37873;SDS011;23709;48.078;11.684;2023-05-15T04:48:20;29.77;;;15.27;;
37873;SDS011;23709;48.078;11.684;2023-05-15T04:50:52;29.95;;;15.65;;
37873;SDS011;23709;48.078;11.684;2023-05-15T04:53:25;35.25;;;17.08;;
37873;SDS011;23709;48.078;11.684;2023-05-15T04:55:57;30.60;;;15.80;;
37873;SDS011;23709;48.078;11.684;2023-05-15T04:58:29;28.73;;;15.98;;
37873;SDS011;23709;48.078;11.684;2023-05-15T05:01:02;28.17;;;14.85;;
37873;SDS011;23709;48.078;11.684;2023-05-15T05:03:35;28.10;;;16.23;;
37873;SDS011;23709;48.078;11.684;2023-05-15T05:06:07;29.55;;;15.52;;
37873;SDS011;23709;48.078;11.684;2023-05-15T05:08:40;32.00;;;17.02;;
37873;SDS011;23709;48.078;11.684;2023-05-15T05:11:13;33.10;;;17.90;;
37873;SDS011;23709;48.078;11.684;2023-05-15T05:13:45;32.65;;;17.10;;
37873;SDS011;23709;48.078;11.684;2023-05-15T05:16:18;30.52;;;17.25;;
37873;SDS011;23709;48.078;11.684;2023-05-15T05:18:52;30.90;;;15.55;;
37873;SDS011;23709;48.078;11.684;2023-05-15T05:21:24;30.48;;;16.85;;
37873;SDS011;23709;48.078;11.684;2023-05-15T05:23:57;26.33;;;15.48;;
37873;SDS011;23709;48.078;11.684;2023-05-15T05:26:30;29.75;;;16.50;;
37873;SDS011;23709;48.078;11.684;2023-05-15T05:29:02;28.40;;;15.95;;
37873;SDS011;23709;48.078;11.684;2023-05-15T05:31:34;34.78;;;18.35;;
37873;SDS011;23709;48.078;11.684;2023-05-15T05:34:07;34.22;;;18.83;;
37873;SDS011;23709;48.078;11.684;2023-05-15T05:36:40;33.03;;;18.58;;
37873;SDS011;23709;48.078;11.684;2023-05-15T05:39:14;33.20;;;18.92;;
37873;SDS011;23709;48.078;11.684;2023-05-15T05:41:47;32.95;;;18.45;;
37873;SDS011;23709;48.078;11.684;2023-05-15T05:44:19;34.28;;;18.58;;
37873;SDS011;23709;48.078;11.684;2023-05-15T05:46:52;31.67;;;17.58;;
37873;SDS011;23709;48.078;11.684;2023-05-15T05:49:24;34.35;;;17.67;;
37873;SDS011;23709;48.078;11.684;2023-05-15T05:52:03;34.78;;;18.13;;
37873;SDS011;23709;48.078;11.684;2023-05-15T05:54:36;30.83;;;17.00;;
37873;SDS011;23709;48.078;11.684;2023-05-15T05:57:09;29.55;;;16.30;;
37873;SDS011;23709;48.078;11.684;2023-05-15T05:59:41;27.87;;;16.70;;
37873;SDS011;23709;48.078;11.684;2023-05-15T06:02:14;30.58;;;17.55;;
37873;SDS011;23709;48.078;11.684;2023-05-15T06:04:47;29.08;;;16.67;;
37873;SDS011;23709;48.078;11.684;2023-05-15T06:07:20;30.23;;;18.23;;
37873;SDS011;23709;48.078;11.684;2023-05-15T06:09:52;31.60;;;18.73;;
37873;SDS011;23709;48.078;11.684;2023-05-15T06:12:25;30.40;;;16.90;;
37873;SDS011;23709;48.078;11.684;2023-05-15T06:14:58;27.48;;;16.52;;
37873;SDS011;23709;48.078;11.684;2023-05-15T06:17:33;27.95;;;17.13;;
37873;SDS011;23709;48.078;11.684;2023-05-15T06:20:05;32.95;;;16.73;;
37873;SDS011;23709;48.078;11.684;2023-05-15T06:22:39;31.80;;;18.63;;
37873;SDS011;23709;48.078;11.684;2023-05-15T06:25:12;30.17;;;17.88;;
37873;SDS011;23709;48.078;11.684;2023-05-15T06:27:45;35.80;;;18.00;;
37873;SDS011;23709;48.078;11.684;2023-05-15T06:30:18;27.63;;;16.90;;
37873;SDS011;23709;48.078;11.684;2023-05-15T06:32:53;28.50;;;15.93;;
37873;SDS011;23709;48.078;11.684;2023-05-15T06:35:25;29.08;;;16.73;;
37873;SDS011;23709;48.078;11.684;2023-05-15T06:37:58;25.23;;;16.27;;
37873;SDS011;23709;48.078;11.684;2023-05-15T06:40:31;28.67;;;15.52;;
37873;SDS011;23709;48.078;11.684;2023-05-15T06:43:04;25.08;;;16.15;;
37873;SDS011;23709;48.078;11.684;2023-05-15T06:45:37;25.38;;;14.95;;
37873;SDS011;23709;48.078;11.684;2023-05-15T06:48:09;24.45;;;15.50;;
37873;SDS011;23709;48.078;11.684;2023-05-15T06:50:42;21.58;;;13.88;;
37873;SDS011;23709;48.078;11.684;2023-05-15T06:53:14;30.08;;;15.13;;
37873;SDS011;23709;48.078;11.684;2023-05-15T06:55:48;23.20;;;13.57;;
37873;SDS011;23709;48.078;11.684;2023-05-15T06:58:20;23.80;;;14.47;;
37873;SDS011;23709;48.078;11.684;2023-05-15T07:00:53;23.20;;;14.93;;
37873;SDS011;23709;48.078;11.684;2023-05-15T07:03:28;23.20;;;14.30;;
37873;SDS011;23709;48.078;11.684;2023-05-15T07:08:35;22.70;;;14.33;;
37873;SDS011;23709;48.078;11.684;2023-05-15T07:11:07;23.33;;;14.40;;
37873;SDS011;23709;48.078;11.684;2023-05-15T07:13:39;19.50;;;13.13;;
37873;SDS011;23709;48.078;11.684;2023-05-15T07:16:12;20.90;;;13.80;;
37873;SDS011;23709;48.078;11.684;2023-05-15T07:18:44;19.92;;;13.32;;
37873;SDS011;23709;48.078;11.684;2023-05-15T07:21:16;22.50;;;13.65;;
37873;SDS011;23709;48.078;11.684;2023-05-15T07:23:49;19.15;;;12.75;;
37873;SDS011;23709;48.078;11.684;2023-05-15T07:26:22;23.90;;;13.07;;
37873;SDS011;23709;48.078;11.684;2023-05-15T07:29:06;21.17;;;12.32;;
37873;SDS011;23709;48.078;11.684;2023-05-15T07:31:40;21.48;;;13.45;;
37873;SDS011;23709;48.078;11.684;2023-05-15T07:34:15;21.15;;;12.32;;
37873;SDS011;23709;48.078;11.684;2023-05-15T07:36:48;19.48;;;13.05;;
37873;SDS011;23709;48.078;11.684;2023-05-15T07:39:20;19.10;;;11.73;;
37873;SDS011;23709;48.078;11.684;2023-05-15T07:41:52;23.38;;;11.85;;
37873;SDS011;23709;48.078;11.684;2023-05-15T07:44:24;15.95;;;10.95;;
37873;SDS011;23709;48.078;11.684;2023-05-15T07:46:57;16.42;;;10.93;;
37873;SDS011;23709;48.078;11.684;2023-05-15T07:49:29;17.50;;;10.52;;
37873;SDS011;23709;48.078;11.684;2023-05-15T07:52:02;14.30;;;10.05;;
37873;SDS011;23709;48.078;11.684;2023-05-15T07:54:35;17.65;;;9.85;;
37873;SDS011;23709;48.078;11.684;2023-05-15T07:57:07;16.15;;;9.02;;
37873;SDS011;23709;48.078;11.684;2023-05-15T07:59:40;12.27;;;9.30;;
37873;SDS011;23709;48.078;11.684;2023-05-15T08:02:12;14.02;;;8.93;;
37873;SDS011;23709;48.078;11.684;2023-05-15T08:04:44;10.35;;;7.45;;
37873;SDS011;23709;48.078;11.684;2023-05-15T08:07:16;15.07;;;7.75;;
37873;SDS011;23709;48.078;11.684;2023-05-15T08:09:49;9.63;;;6.57;;
37873;SDS011;23709;48.078;11.684;2023-05-15T08:12:21;11.77;;;7.15;;
37873;SDS011;23709;48.078;11.684;2023-05-15T08:14:54;9.15;;;5.90;;
37873;SDS011;23709;48.078;11.684;2023-05-15T08:17:26;9.60;;;7.00;;
37873;SDS011;23709;48.078;11.684;2023-05-15T08:19:59;9.65;;;7.22;;
37873;SDS011;23709;48.078;11.684;2023-05-15T08:22:31;10.52;;;6.07;;
37873;SDS011;23709;48.078;11.684;2023-05-15T08:25:07;10.30;;;5.88;;
37873;SDS011;23709;48.078;11.684;2023-05-15T08:27:40;7.05;;;5.70;;
37873;SDS011;23709;48.078;11.684;2023-05-15T08:30:12;9.02;;;5.65;;
37873;SDS011;23709;48.078;11.684;2023-05-15T08:32:44;7.65;;;4.93;;
37873;SDS011;23709;48.078;11.684;2023-05-15T08:35:17;6.75;;;4.97;;
37873;SDS011;23709;48.078;11.684;2023-05-15T08:37:49;6.85;;;4.97;;
37873;SDS011;23709;48.078;11.684;2023-05-15T08:40:21;5.75;;;4.38;;
37873;SDS011;23709;48.078;11.684;2023-05-15T08:43:11;7.82;;;4.78;;
37873;SDS011;23709;48.078;11.684;2023-05-15T08:45:46;6.95;;;5.03;;
37873;SDS011;23709;48.078;11.684;2023-05-15T08:50:56;7.93;;;5.20;;
37873;SDS011;23709;48.078;11.684;2023-05-15T08:53:30;8.48;;;5.50;;
37873;SDS011;23709;48.078;11.684;2023-05-15T08:56:02;7.10;;;5.85;;
37873;SDS011;23709;48.078;11.684;2023-05-15T09:01:09;10.52;;;6.07;;
37873;SDS011;23709;48.078;11.684;2023-05-15T09:03:43;6.90;;;5.40;;
37873;SDS011;23709;48.078;11.684;2023-05-15T09:06:15;8.85;;;5.38;;
37873;SDS011;23709;48.078;11.684;2023-05-15T09:08:50;6.43;;;4.45;;
37873;SDS011;23709;48.078;11.684;2023-05-15T09:11:26;7.95;;;4.43;;
37873;SDS011;23709;48.078;11.684;2023-05-15T09:14:00;6.82;;;5.18;;
37873;SDS011;23709;48.078;11.684;2023-05-15T09:16:33;9.13;;;6.00;;
37873;SDS011;23709;48.078;11.684;2023-05-15T09:19:06;10.80;;;6.28;;
37873;SDS011;23709;48.078;11.684;2023-05-15T09:21:39;16.02;;;7.82;;
37873;SDS011;23709;48.078;11.684;2023-05-15T09:24:16;23.67;;;8.85;;
37873;SDS011;23709;48.078;11.684;2023-05-15T09:27:07;15.70;;;9.27;;
37873;SDS011;23709;48.078;11.684;2023-05-15T09:29:40;8.93;;;5.63;;
37873;SDS011;23709;48.078;11.684;2023-05-15T09:32:13;13.75;;;7.10;;
37873;SDS011;23709;48.078;11.684;2023-05-15T09:34:46;10.68;;;7.88;;
37873;SDS011;23709;48.078;11.684;2023-05-15T09:37:29;12.35;;;7.85;;
37873;SDS011;23709;48.078;11.684;2023-05-15T09:40:09;10.48;;;7.13;;
37873;SDS011;23709;48.078;11.684;2023-05-15T09:42:42;12.23;;;8.15;;
37873;SDS011;23709;48.078;11.684;2023-05-15T09:45:22;13.75;;;8.02;;
37873;SDS011;23709;48.078;11.684;2023-05-15T09:48:04;12.38;;;9.25;;
37873;SDS011;23709;48.078;11.684;2023-05-15T09:50:38;12.85;;;8.23;;
37873;SDS011;23709;48.078;11.684;2023-05-15T09:53:12;13.40;;;8.90;;
37873;SDS011;23709;48.078;11.684;2023-05-15T09:55:44;13.40;;;9.13;;
37873;SDS011;23709;48.078;11.684;2023-05-15T09:58:19;12.95;;;8.02;;
37873;SDS011;23709;48.078;11.684;2023-05-15T10:00:51;10.00;;;7.93;;
37873;SDS011;23709;48.078;11.684;2023-05-15T10:03:23;12.77;;;9.23;;
37873;SDS011;23709;48.078;11.684;2023-05-15T10:05:59;11.32;;;7.75;;
37873;SDS011;23709;48.078;11.684;2023-05-15T10:08:32;13.45;;;8.18;;
37873;SDS011;23709;48.078;11.684;2023-05-15T10:11:07;9.60;;;7.47;;
37873;SDS011;23709;48.078;11.684;2023-05-15T10:13:40;13.68;;;8.07;;
37873;SDS011;23709;48.078;11.684;2023-05-15T10:16:13;12.23;;;7.63;;
37873;SDS011;23709;48.078;11.684;2023-05-15T10:18:46;10.98;;;7.78;;
37873;SDS011;23709;48.078;11.684;2023-05-15T10:21:19;10.27;;;7.95;;
37873;SDS011;23709;48.078;11.684;2023-05-15T10:23:53;9.73;;;7.32;;
37873;SDS011;23709;48.078;11.684;2023-05-15T10:26:32;9.65;;;6.78;;
37873;SDS011;23709;48.078;11.684;2023-05-15T10:29:19;9.13;;;6.95;;
37873;SDS011;23709;48.078;11.684;2023-05-15T10:31:54;11.63;;;7.22;;
37873;SDS011;23709;48.078;11.684;2023-05-15T10:34:28;12.40;;;6.30;;
37873;SDS011;23709;48.078;11.684;2023-05-15T10:37:02;8.63;;;6.60;;
37873;SDS011;23709;48.078;11.684;2023-05-15T10:39:36;12.07;;;6.38;;
37873;SDS011;23709;48.078;11.684;2023-05-15T10:42:11;8.57;;;6.45;;
37873;SDS011;23709;48.078;11.684;2023-05-15T10:44:44;8.63;;;6.60;;
37873;SDS011;23709;48.078;11.684;2023-05-15T10:47:18;9.48;;;7.15;;
37873;SDS011;23709;48.078;11.684;2023-05-15T10:49:51;8.82;;;6.65;;
37873;SDS011;23709;48.078;11.684;2023-05-15T10:52:23;11.53;;;7.27;;
37873;SDS011;23709;48.078;11.684;2023-05-15T10:54:56;13.23;;;6.80;;
37873;SDS011;23709;48.078;11.684;2023-05-15T10:57:29;7.95;;;6.47;;
37873;SDS011;23709;48.078;11.684;2023-05-15T11:00:01;8.73;;;6.78;;
37873;SDS011;23709;48.078;11.684;2023-05-15T11:02:37;9.57;;;6.65;;
37873;SDS011;23709;48.078;11.684;2023-05-15T11:07:43;9.88;;;6.75;;
37873;SDS011;23709;48.078;11.684;2023-05-15T11:12:59;12.13;;;7.55;;
37873;SDS011;23709;48.078;11.684;2023-05-15T11:15:45;10.80;;;6.95;;
37873;SDS011;23709;48.078;11.684;2023-05-15T11:18:19;13.23;;;7.85;;
37873;SDS011;23709;48.078;11.684;2023-05-15T11:23:24;31.33;;;9.50;;
37873;SDS011;23709;48.078;11.684;2023-05-15T11:25:56;10.38;;;6.85;;
37873;SDS011;23709;48.078;11.684;2023-05-15T11:28:29;10.95;;;6.65;;
37873;SDS011;23709;48.078;11.684;2023-05-15T11:31:04;10.35;;;6.45;;
37873;SDS011;23709;48.078;11.684;2023-05-15T11:33:38;8.25;;;4.72;;
37873;SDS011;23709;48.078;11.684;2023-05-15T11:36:11;7.97;;;4.32;;
37873;SDS011;23709;48.078;11.684;2023-05-15T11:38:46;6.55;;;4.35;;
37873;SDS011;23709;48.078;11.684;2023-05-15T11:41:21;15.63;;;5.85;;
37873;SDS011;23709;48.078;11.684;2023-05-15T11:43:58;7.82;;;5.72;;
37873;SDS011;23709;48.078;11.684;2023-05-15T11:46:30;12.57;;;7.93;;
37873;SDS011;23709;48.078;11.684;2023-05-15T11:51:36;11.70;;;7.38;;
37873;SDS011;23709;48.078;11.684;2023-05-15T11:54:13;12.85;;;8.02;;
37873;SDS011;23709;48.078;11.684;2023-05-15T11:56:48;13.18;;;8.63;;
37873;SDS011;23709;48.078;11.684;2023-05-15T11:59:20;15.35;;;9.05;;
37873;SDS011;23709;48.078;11.684;2023-05-15T12:01:52;13.55;;;8.45;;
37873;SDS011;23709;48.078;11.684;2023-05-15T12:04:25;14.63;;;8.77;;
37873;SDS011;23709;48.078;11.684;2023-05-15T12:06:59;13.20;;;8.20;;
37873;SDS011;23709;48.078;11.684;2023-05-15T12:09:33;11.90;;;8.20;;
37873;SDS011;23709;48.078;11.684;2023-05-15T12:12:08;12.70;;;7.78;;
37873;SDS011;23709;48.078;11.684;2023-05-15T12:14:44;11.32;;;8.15;;
37873;SDS011;23709;48.078;11.684;2023-05-15T12:17:17;12.40;;;7.80;;
37873;SDS011;23709;48.078;11.684;2023-05-15T12:19:49;15.38;;;8.27;;
37873;SDS011;23709;48.078;11.684;2023-05-15T12:22:23;13.80;;;9.25;;
37873;SDS011;23709;48.078;11.684;2023-05-15T12:24:57;14.32;;;8.38;;
37873;SDS011;23709;48.078;11.684;2023-05-15T12:27:30;11.35;;;8.18;;
37873;SDS011;23709;48.078;11.684;2023-05-15T12:30:03;12.68;;;8.57;;
37873;SDS011;23709;48.078;11.684;2023-05-15T12:32:37;13.75;;;8.23;;
37873;SDS011;23709;48.078;11.684;2023-05-15T12:35:10;11.43;;;7.75;;
37873;SDS011;23709;48.078;11.684;2023-05-15T12:37:44;17.05;;;7.97;;
37873;SDS011;23709;48.078;11.684;2023-05-15T12:40:19;41.30;;;10.57;;
37873;SDS011;23709;48.078;11.684;2023-05-15T12:42:52;17.27;;;9.02;;
37873;SDS011;23709;48.078;11.684;2023-05-15T12:45:25;18.25;;;8.88;;
37873;SDS011;23709;48.078;11.684;2023-05-15T12:47:58;13.23;;;6.53;;
37873;SDS011;23709;48.078;11.684;2023-05-15T12:50:31;15.30;;;8.88;;
37873;SDS011;23709;48.078;11.684;2023-05-15T12:55:39;11.20;;;7.65;;
37873;SDS011;23709;48.078;11.684;2023-05-15T12:58:17;11.27;;;7.45;;
37873;SDS011;23709;48.078;11.684;2023-05-15T13:00:50;9.63;;;6.95;;
37873;SDS011;23709;48.078;11.684;2023-05-15T13:03:23;10.97;;;7.00;;
37873;SDS011;23709;48.078;11.684;2023-05-15T13:05:58;9.73;;;6.03;;
37873;SDS011;23709;48.078;11.684;2023-05-15T13:08:38;10.55;;;6.47;;
37873;SDS011;23709;48.078;11.684;2023-05-15T13:11:12;8.50;;;5.85;;
37873;SDS011;23709;48.078;11.684;2023-05-15T13:13:46;7.37;;;5.23;;
37873;SDS011;23709;48.078;11.684;2023-05-15T13:16:24;10.43;;;4.97;;
37873;SDS011;23709;48.078;11.684;2023-05-15T13:19:00;8.02;;;6.07;;
37873;SDS011;23709;48.078;11.684;2023-05-15T13:21:33;11.02;;;7.10;;
37873;SDS011;23709;48.078;11.684;2023-05-15T13:24:06;11.77;;;7.10;;
37873;SDS011;23709;48.078;11.684;2023-05-15T13:26:40;13.35;;;6.57;;
37873;SDS011;23709;48.078;11.684;2023-05-15T13:29:12;10.93;;;7.10;;
37873;SDS011;23709;48.078;11.684;2023-05-15T13:31:44;11.98;;;6.75;;
37873;SDS011;23709;48.078;11.684;2023-05-15T13:34:17;8.88;;;6.63;;
37873;SDS011;23709;48.078;11.684;2023-05-15T13:36:50;9.07;;;6.82;;
37873;SDS011;23709;48.078;11.684;2023-05-15T13:39:22;9.52;;;6.90;;
37873;SDS011;23709;48.078;11.684;2023-05-15T13:41:54;9.57;;;6.78;;
37873;SDS011;23709;48.078;11.684;2023-05-15T13:44:27;10.52;;;5.85;;
37873;SDS011;23709;48.078;11.684;2023-05-15T13:46:59;7.10;;;4.95;;
37873;SDS011;23709;48.078;11.684;2023-05-15T13:49:35;9.38;;;5.18;;
37873;SDS011;23709;48.078;11.684;2023-05-15T13:52:07;7.90;;;5.55;;
37873;SDS011;23709;48.078;11.684;2023-05-15T13:54:40;9.35;;;6.47;;
37873;SDS011;23709;48.078;11.684;2023-05-15T13:57:12;10.35;;;5.57;;
37873;SDS011;23709;48.078;11.684;2023-05-15T13:59:45;8.77;;;5.57;;
37873;SDS011;23709;48.078;11.684;2023-05-15T14:02:18;7.00;;;5.25;;
37873;SDS011;23709;48.078;11.684;2023-05-15T14:04:52;10.55;;;6.78;;
37873;SDS011;23709;48.078;11.684;2023-05-15T14:07:24;8.87;;;6.20;;
37873;SDS011;23709;48.078;11.684;2023-05-15T14:09:57;14.27;;;6.35;;
37873;SDS011;23709;48.078;11.684;2023-05-15T14:12:29;12.18;;;6.40;;
37873;SDS011;23709;48.078;11.684;2023-05-15T14:15:03;9.32;;;6.35;;
37873;SDS011;23709;48.078;11.684;2023-05-15T14:17:36;10.10;;;6.32;;
37873;SDS011;23709;48.078;11.684;2023-05-15T14:20:08;7.68;;;5.35;;
37873;SDS011;23709;48.078;11.684;2023-05-15T14:22:42;7.57;;;5.78;;
37873;SDS011;23709;48.078;11.684;2023-05-15T14:25:14;7.70;;;5.50;;
37873;SDS011;23709;48.078;11.684;2023-05-15T14:27:47;8.30;;;5.88;;
37873;SDS011;23709;48.078;11.684;2023-05-15T14:30:20;6.43;;;4.93;;
37873;SDS011;23709;48.078;11.684;2023-05-15T14:32:54;7.38;;;5.18;;
37873;SDS011;23709;48.078;11.684;2023-05-15T14:35:26;5.82;;;4.22;;
37873;SDS011;23709;48.078;11.684;2023-05-15T14:37:58;7.85;;;4.32;;
37873;SDS011;23709;48.078;11.684;2023-05-15T14:40:30;6.28;;;4.55;;
37873;SDS011;23709;48.078;11.684;2023-05-15T14:43:03;10.00;;;5.50;;
37873;SDS011;23709;48.078;11.684;2023-05-15T14:45:35;8.40;;;5.47;;
37873;SDS011;23709;48.078;11.684;2023-05-15T14:48:07;7.40;;;4.53;;
37873;SDS011;23709;48.078;11.684;2023-05-15T14:50:42;6.53;;;4.22;;
37873;SDS011;23709;48.078;11.684;2023-05-15T14:53:15;5.37;;;4.43;;
37873;SDS011;23709;48.078;11.684;2023-05-15T14:55:48;6.77;;;3.93;;
37873;SDS011;23709;48.078;11.684;2023-05-15T14:58:20;5.88;;;3.25;;
37873;SDS011;23709;48.078;11.684;2023-05-15T15:00:52;5.47;;;3.92;;
37873;SDS011;23709;48.078;11.684;2023-05-15T15:03:24;4.30;;;3.38;;
37873;SDS011;23709;48.078;11.684;2023-05-15T15:06:00;5.32;;;4.18;;
37873;SDS011;23709;48.078;11.684;2023-05-15T15:08:32;6.30;;;4.55;;
37873;SDS011;23709;48.078;11.684;2023-05-15T15:11:04;13.52;;;5.60;;
37873;SDS011;23709;48.078;11.684;2023-05-15T15:13:38;7.25;;;5.63;;
37873;SDS011;23709;48.078;11.684;2023-05-15T15:16:10;9.57;;;5.28;;
37873;SDS011;23709;48.078;11.684;2023-05-15T15:18:43;8.65;;;5.30;;
37873;SDS011;23709;48.078;11.684;2023-05-15T15:21:15;10.67;;;5.70;;
37873;SDS011;23709;48.078;11.684;2023-05-15T15:23:48;8.07;;;5.80;;
37873;SDS011;23709;48.078;11.684;2023-05-15T15:26:20;7.35;;;5.22;;
37873;SDS011;23709;48.078;11.684;2023-05-15T15:28:53;9.68;;;5.30;;
37873;SDS011;23709;48.078;11.684;2023-05-15T15:31:31;8.60;;;5.60;;
37873;SDS011;23709;48.078;11.684;2023-05-15T15:34:03;6.53;;;5.20;;
37873;SDS011;23709;48.078;11.684;2023-05-15T15:36:36;9.43;;;5.50;;